Time;durP1;ratioP1;P1;durP2;ratioP2;P2;SDS_P1;SDS_P2;PMS_P1;PMS_P2;Temp;Humidity;BMP_temperature;BMP_pressure;BME280_temperature;BME280_humidity;BME280_pressure;Samples;Min_cycle;Max_cycle;Signal;HPM_P1;HPM_P2
2022/04/23 00:01:17;;;;;;;21.70;18.08;;;;;;;11.73;64.84;100336.19;5032197;28;20548;-63
2022/04/23 00:03:43;;;;;;;23.10;18.30;;;;;;;11.65;65.12;100342.13;5030369;28;21066;-63
2022/04/23 00:06:08;;;;;;;23.83;18.15;;;;;;;11.69;64.76;100346.25;5029578;28;20045;-63
2022/04/23 00:08:34;;;;;;;19.75;17.75;;;;;;;11.73;64.72;100347.69;5030939;28;20124;-63
2022/04/23 00:10:59;;;;;;;21.02;17.25;;;;;;;11.79;64.55;100344.59;5030353;28;20040;-63
2022/04/23 00:13:26;;;;;;;21.27;17.77;;;;;;;11.70;64.71;100331.94;5029829;28;20416;-63
2022/04/23 00:15:52;;;;;;;20.20;18.10;;;;;;;11.70;64.94;100339.94;5029212;28;20040;-63
2022/04/23 00:18:20;;;;;;;21.85;18.13;;;;;;;11.70;64.89;100345.25;5029728;28;20474;-63
2022/04/23 00:20:48;;;;;;;20.77;18.30;;;;;;;11.68;65.16;100347.22;5029355;28;20034;-63
2022/04/23 00:23:14;;;;;;;21.08;18.55;;;;;;;11.63;65.40;100344.03;5046125;28;20365;-63
2022/04/23 00:25:41;;;;;;;24.40;19.00;;;;;;;11.57;65.48;100349.84;5029107;28;20056;-63
2022/04/23 00:28:09;;;;;;;20.70;18.60;;;;;;;11.55;65.47;100346.44;5029861;28;20033;-63
2022/04/23 00:30:35;;;;;;;21.38;18.85;;;;;;;11.57;65.67;100339.19;5030087;28;20026;-63
2022/04/23 00:33:01;;;;;;;23.25;17.90;;;;;;;11.61;65.53;100337.97;5033246;28;20128;-63
2022/04/23 00:35:27;;;;;;;19.88;17.77;;;;;;;11.55;65.42;100339.28;5028519;28;20030;-63
2022/04/23 00:37:53;;;;;;;22.23;19.17;;;;;;;11.50;66.16;100338.81;5028443;28;20387;-63
2022/04/23 00:40:21;;;;;;;23.70;19.08;;;;;;;11.42;66.33;100346.50;5029911;28;20036;-63
2022/04/23 00:42:52;;;;;;;21.10;18.40;;;;;;;11.47;65.99;100341.69;5031486;28;20020;-63
2022/04/23 00:45:27;;;;;;;21.98;18.70;;;;;;;11.32;66.20;100329.50;5026415;28;20049;-63
2022/04/23 00:47:55;;;;;;;24.35;19.52;;;;;;;11.37;66.56;100338.84;5030394;28;20518;-63
2022/04/23 00:50:22;;;;;;;20.42;18.10;;;;;;;11.31;66.82;100344.63;5028971;28;20104;-63
2022/04/23 00:53:02;;;;;;;20.15;17.90;;;;;;;11.20;66.74;100335.75;5044983;28;20033;-63
2022/04/23 00:55:31;;;;;;;21.42;19.17;;;;;;;11.27;67.22;100337.84;5034371;28;20022;-63
2022/04/23 00:58:00;;;;;;;21.25;19.00;;;;;;;11.22;67.36;100336.50;5033398;28;20112;-63
2022/04/23 01:00:25;;;;;;;22.92;19.63;;;;;;;11.08;67.62;100335.69;5048013;28;20032;-63
2022/04/23 01:02:55;;;;;;;22.42;18.60;;;;;;;11.16;67.40;100344.94;5035462;28;20489;-63
2022/04/23 01:05:24;;;;;;;21.73;19.52;;;;;;;11.10;67.56;100344.41;5033259;28;20064;-63
2022/04/23 01:08:08;;;;;;;24.80;19.30;;;;;;;11.08;68.18;100343.66;5031680;28;20042;-63
2022/04/23 01:10:34;;;;;;;22.65;20.27;;;;;;;11.06;67.76;100345.63;5013343;28;20116;-63
2022/04/23 01:13:00;;;;;;;21.58;19.10;;;;;;;11.08;68.02;100337.50;5030607;28;20362;-63
2022/04/23 01:15:25;;;;;;;22.08;19.55;;;;;;;11.11;67.82;100345.25;5013869;28;20044;-63
2022/04/23 01:17:51;;;;;;;23.88;20.83;;;;;;;11.06;68.02;100340.28;5030450;28;20535;-63
2022/04/23 01:20:16;;;;;;;25.45;20.80;;;;;;;11.05;68.27;100341.22;5013207;28;20034;-63
2022/04/23 01:22:44;;;;;;;23.08;19.63;;;;;;;11.06;68.37;100340.28;5013727;28;20045;-63
2022/04/23 01:25:13;;;;;;;24.20;21.38;;;;;;;11.11;68.05;100343.44;5028406;28;20056;-63
2022/04/23 01:27:45;;;;;;;23.08;20.33;;;;;;;11.03;68.33;100343.19;5030255;28;20184;-63
2022/04/23 01:30:13;;;;;;;26.02;21.13;;;;;;;11.05;68.72;100343.91;5013233;28;20029;-63
2022/04/23 01:32:42;;;;;;;23.50;21.15;;;;;;;11.07;68.50;100344.63;5030298;28;20071;-63
2022/04/23 01:35:09;;;;;;;23.40;20.90;;;;;;;10.96;68.72;100343.72;5030054;28;20036;-63
2022/04/23 01:37:34;;;;;;;23.88;21.25;;;;;;;10.89;69.50;100352.16;5030920;28;20022;-63
2022/04/23 01:39:59;;;;;;;23.65;20.42;;;;;;;10.95;69.23;100344.69;5029507;28;20044;-63
2022/04/23 01:42:25;;;;;;;25.88;21.00;;;;;;;10.89;69.39;100344.16;5033844;28;20045;-63
2022/04/23 01:44:52;;;;;;;23.77;21.17;;;;;;;10.84;69.28;100346.31;5047855;28;20087;-63
2022/04/23 01:47:18;;;;;;;24.25;21.65;;;;;;;10.94;69.22;100342.97;5031742;28;20112;-63
2022/04/23 01:49:46;;;;;;;25.15;22.42;;;;;;;10.84;69.84;100348.13;5063625;28;20128;-63
2022/04/23 01:52:13;;;;;;;25.08;21.73;;;;;;;10.80;69.80;100346.66;5032931;28;20033;-63
2022/04/23 01:54:38;;;;;;;24.60;21.98;;;;;;;10.84;69.79;100351.63;5033093;28;20021;-63
2022/04/23 01:57:05;;;;;;;25.15;22.40;;;;;;;10.78;69.66;100351.22;5033171;28;20032;-63
2022/04/23 01:59:32;;;;;;;25.42;22.85;;;;;;;10.73;70.13;100356.88;5033756;28;20033;-63
2022/04/23 02:02:01;;;;;;;26.48;22.88;;;;;;;10.74;69.96;100349.75;5032084;28;20539;-63
2022/04/23 02:04:27;;;;;;;25.98;23.10;;;;;;;10.76;70.14;100350.47;5048413;28;20435;-63
2022/04/23 02:06:54;;;;;;;25.77;23.08;;;;;;;10.75;70.12;100351.44;5032590;28;20037;-63
2022/04/23 02:09:21;;;;;;;25.48;22.88;;;;;;;10.70;70.76;100357.09;5033038;28;20076;-63
2022/04/23 02:11:46;;;;;;;26.55;23.77;;;;;;;10.66;70.63;100348.47;5049132;28;20128;-63
2022/04/23 02:14:13;;;;;;;27.60;24.15;;;;;;;10.69;70.83;100355.41;5031241;28;20579;-63
2022/04/23 02:16:39;;;;;;;28.30;24.40;;;;;;;10.67;70.88;100352.00;5033648;28;20334;-63
2022/04/23 02:19:04;;;;;;;25.90;23.13;;;;;;;10.72;70.84;100359.66;5030925;28;20032;-63
2022/04/23 02:21:30;;;;;;;26.80;23.90;;;;;;;10.65;70.79;100346.78;5048626;28;20037;-63
2022/04/23 02:24:00;;;;;;;29.77;25.58;;;;;;;10.55;70.99;100331.59;5030992;28;20477;-63
2022/04/23 02:26:25;;;;;;;26.95;24.05;;;;;;;10.64;71.22;100344.22;5046663;28;20071;-63
2022/04/23 02:28:53;;;;;;;28.73;24.55;;;;;;;10.60;70.95;100343.59;5031849;28;20037;-63
2022/04/23 02:31:18;;;;;;;30.20;25.88;;;;;;;10.62;71.09;100355.00;5033374;28;20034;-63
2022/04/23 02:33:44;;;;;;;29.50;26.35;;;;;;;10.56;71.35;100344.78;5031842;28;20032;-63
2022/04/23 02:36:11;;;;;;;31.02;26.92;;;;;;;10.46;71.87;100349.03;5031900;28;20090;-63
2022/04/23 02:38:41;;;;;;;29.42;25.85;;;;;;;10.46;71.85;100346.38;5032866;28;20484;-63
2022/04/23 02:41:10;;;;;;;31.23;27.83;;;;;;;10.44;72.20;100343.84;5031785;28;20108;-63
2022/04/23 02:43:38;;;;;;;31.60;26.90;;;;;;;10.41;72.47;100349.38;5031499;28;20376;-63
2022/04/23 02:46:04;;;;;;;30.25;27.05;;;;;;;10.44;72.05;100350.94;5031863;28;20025;-63
2022/04/23 02:48:29;;;;;;;31.70;27.27;;;;;;;10.49;71.79;100348.81;5032923;28;20025;-63
2022/04/23 02:50:55;;;;;;;32.22;28.40;;;;;;;10.51;72.15;100338.09;5014300;28;20041;-63
2022/04/23 02:53:21;;;;;;;31.20;27.75;;;;;;;10.44;72.49;100345.63;5032325;28;20400;-63
2022/04/23 02:55:47;;;;;;;32.40;28.10;;;;;;;10.36;72.56;100338.22;5046969;28;20026;-63
2022/04/23 02:58:13;;;;;;;31.25;27.88;;;;;;;10.48;72.45;100339.16;5032516;28;20041;-63
2022/04/23 03:00:41;;;;;;;34.13;29.52;;;;;;;10.36;72.71;100334.72;5048552;28;20087;-63
2022/04/23 03:03:08;;;;;;;31.70;27.85;;;;;;;10.41;72.41;100341.41;5047174;28;20028;-63
2022/04/23 03:05:34;;;;;;;33.47;28.73;;;;;;;10.39;72.56;100331.84;5047143;28;20428;-63
2022/04/23 03:08:02;;;;;;;31.52;28.02;;;;;;;10.37;73.02;100329.28;5032851;28;20087;-63
2022/04/23 03:10:28;;;;;;;32.22;28.73;;;;;;;10.35;72.93;100333.00;5046327;28;20041;-63
2022/04/23 03:12:57;;;;;;;32.58;29.08;;;;;;;10.31;73.38;100331.53;5030750;28;20037;-63
2022/04/23 03:15:24;;;;;;;32.97;28.98;;;;;;;10.37;73.14;100337.25;5044550;28;20029;-63
2022/04/23 03:17:50;;;;;;;34.50;29.88;;;;;;;10.28;73.41;100321.97;5047094;28;20387;-63
2022/04/23 03:20:16;;;;;;;33.83;30.13;;;;;;;10.32;72.95;100338.53;5044639;28;20021;-63
2022/04/23 03:22:42;;;;;;;34.28;30.38;;;;;;;10.35;73.23;100335.66;5031015;28;20025;-63
2022/04/23 03:25:09;;;;;;;36.55;31.15;;;;;;;10.34;73.57;100331.31;5031255;28;20123;-63
2022/04/23 03:27:36;;;;;;;36.63;31.55;;;;;;;10.33;73.30;100338.44;5029486;28;20026;-63
2022/04/23 03:30:02;;;;;;;33.85;30.23;;;;;;;10.28;73.42;100331.75;5031488;28;20369;-64
2022/04/23 03:32:28;;;;;;;34.08;30.38;;;;;;;10.30;73.89;100332.50;5030883;28;20392;-63
2022/04/23 03:34:54;;;;;;;35.70;31.98;;;;;;;10.24;74.18;100331.09;5030788;28;20029;-63
2022/04/23 03:37:21;;;;;;;35.67;31.88;;;;;;;10.20;73.78;100326.91;5029162;28;20037;-63
2022/04/23 03:39:47;;;;;;;34.88;31.15;;;;;;;10.18;74.32;100327.03;5033604;28;20029;-63
2022/04/23 03:42:12;;;;;;;36.17;32.20;;;;;;;10.19;74.29;100328.72;5030686;28;20400;-63
2022/04/23 03:44:41;;;;;;;36.92;31.92;;;;;;;10.18;73.90;100327.03;5030050;28;20053;-63
2022/04/23 03:47:07;;;;;;;35.75;31.95;;;;;;;10.07;74.54;100324.28;5030097;28;20037;-63
2022/04/23 03:49:33;;;;;;;35.63;31.73;;;;;;;10.09;74.48;100318.84;5045235;28;20036;-63
2022/04/23 03:51:59;;;;;;;38.15;32.80;;;;;;;10.01;74.72;100314.06;5031875;28;20034;-63
2022/04/23 03:54:25;;;;;;;39.13;32.85;;;;;;;9.96;74.84;100309.06;5045850;28;20052;-63
2022/04/23 03:56:54;;;;;;;37.80;32.78;;;;;;;10.10;74.65;100317.91;5030459;28;20477;-63
2022/04/23 03:59:21;;;;;;;38.05;33.22;;;;;;;10.00;74.54;100307.91;5031274;28;20623;-63
2022/04/23 04:01:47;;;;;;;41.33;33.53;;;;;;;10.00;75.25;100315.03;5030853;28;20026;-63
2022/04/23 04:04:17;;;;;;;38.92;34.67;;;;;;;9.96;75.33;100311.72;5030338;28;20040;-63
2022/04/23 04:06:46;;;;;;;40.05;33.80;;;;;;;9.94;75.19;100307.47;5032113;28;20031;-63
2022/04/23 04:09:12;;;;;;;37.60;33.50;;;;;;;9.94;75.51;100305.69;5030758;28;20033;-63
2022/04/23 04:12:11;;;;;;;38.58;33.00;;;;;;;10.00;75.08;100309.72;5032422;28;20384;-63
2022/04/23 04:14:37;;;;;;;37.35;33.35;;;;;;;9.99;75.36;100311.50;5028921;28;20386;-63
2022/04/23 04:17:15;;;;;;;36.80;32.58;;;;;;;9.99;75.21;100314.16;5030670;28;20053;-63
2022/04/23 04:19:41;;;;;;;37.50;32.33;;;;;;;9.97;75.41;100304.59;5045295;28;20052;-63
2022/04/23 04:22:09;;;;;;;39.15;34.15;;;;;;;9.93;75.34;100301.31;5017178;28;20029;-63
2022/04/23 04:24:35;;;;;;;38.05;33.45;;;;;;;9.89;75.92;100305.16;5032861;28;20444;-63
2022/04/23 04:27:04;;;;;;;39.95;34.03;;;;;;;9.82;75.84;100298.53;5046200;28;20022;-63
2022/04/23 04:29:29;;;;;;;39.92;35.28;;;;;;;9.81;76.60;100298.66;5051520;28;20480;-63
2022/04/23 04:31:55;;;;;;;39.65;33.20;;;;;;;9.88;76.34;100299.94;5036408;28;20063;-63
2022/04/23 04:34:32;;;;;;;37.78;33.45;;;;;;;9.89;76.27;100296.34;5046627;28;20037;-63
2022/04/23 04:37:09;;;;;;;39.40;34.83;;;;;;;9.84;76.37;100293.97;5036205;28;20029;-63
2022/04/23 04:39:39;;;;;;;40.28;34.67;;;;;;;9.83;76.42;100307.38;5035919;28;20032;-63
2022/04/23 04:42:05;;;;;;;40.33;34.35;;;;;;;9.86;76.51;100304.53;5035681;28;20025;-63
2022/04/23 04:44:32;;;;;;;41.40;34.92;;;;;;;9.87;76.55;100308.88;5033807;28;20088;-63
2022/04/23 04:46:59;;;;;;;39.10;33.40;;;;;;;9.82;76.51;100295.88;5048066;28;20564;-63
2022/04/23 04:49:25;;;;;;;39.67;33.92;;;;;;;9.91;76.33;100305.91;5048588;28;20473;-63
2022/04/23 04:51:52;;;;;;;39.92;33.85;;;;;;;9.86;76.28;100308.03;5034170;28;20033;-63
2022/04/23 04:54:18;;;;;;;38.45;34.33;;;;;;;9.87;76.66;100311.53;5032825;28;20061;-63
2022/04/23 04:56:52;;;;;;;38.15;33.88;;;;;;;9.85;76.70;100310.75;5035093;28;20029;-63
2022/04/23 04:59:20;;;;;;;39.45;34.92;;;;;;;9.83;77.20;100310.03;5036008;28;20053;-63
2022/04/23 05:01:46;;;;;;;39.83;33.90;;;;;;;9.92;76.50;100320.88;5032966;28;20033;-63
2022/04/23 05:04:11;;;;;;;37.88;33.83;;;;;;;9.96;76.58;100317.03;5032213;28;20088;-63
2022/04/23 05:06:37;;;;;;;39.08;34.80;;;;;;;9.92;76.67;100323.53;5033626;28;20498;-63
2022/04/23 05:09:05;;;;;;;38.17;34.08;;;;;;;9.97;77.00;100318.75;5049125;28;20029;-63
2022/04/23 05:11:30;;;;;;;42.10;33.88;;;;;;;9.98;76.81;100319.59;5033654;28;20037;-63
2022/04/23 05:13:56;;;;;;;43.22;35.65;;;;;;;9.94;77.02;100313.66;5033334;28;20045;-63
2022/04/23 05:16:22;;;;;;;42.05;34.97;;;;;;;10.00;77.08;100315.88;5032247;28;20137;-63
2022/04/23 05:18:47;;;;;;;42.30;35.13;;;;;;;10.02;76.99;100315.78;5048390;28;20104;-63
2022/04/23 05:21:13;;;;;;;41.13;34.75;;;;;;;10.06;76.79;100313.75;5020077;28;20111;-63
2022/04/23 05:23:38;;;;;;;38.55;34.53;;;;;;;10.02;76.99;100313.13;5053270;28;20495;-63
2022/04/23 05:26:09;;;;;;;38.20;34.10;;;;;;;10.05;76.67;100314.72;5047185;28;20526;-62
2022/04/23 05:28:35;;;;;;;37.38;32.80;;;;;;;10.11;76.85;100323.09;5033187;28;20064;-63
2022/04/23 05:31:02;;;;;;;37.75;33.53;;;;;;;10.17;76.66;100327.13;5049052;28;20037;-63
2022/04/23 05:33:28;;;;;;;39.85;35.55;;;;;;;10.14;76.90;100322.88;5047806;28;20025;-63
2022/04/23 05:35:54;;;;;;;39.08;33.45;;;;;;;10.18;76.79;100326.19;5049102;28;20044;-63
2022/04/23 05:38:21;;;;;;;36.25;32.35;;;;;;;10.20;76.69;100317.13;5053795;28;20086;-63
2022/04/23 05:40:47;;;;;;;37.53;33.55;;;;;;;10.22;76.63;100315.22;5068032;28;20059;-63
2022/04/23 05:43:13;;;;;;;41.35;34.90;;;;;;;10.27;76.58;100317.59;5053280;28;20078;-63
2022/04/23 05:45:41;;;;;;;38.03;32.17;;;;;;;10.30;76.38;100316.53;5052943;28;20033;-63
2022/04/23 05:48:06;;;;;;;41.03;34.70;;;;;;;10.33;76.37;100316.34;5050830;28;20067;-63
2022/04/23 05:50:32;;;;;;;39.53;34.38;;;;;;;10.39;76.64;100323.88;5031390;28;20033;-63
2022/04/23 05:53:00;;;;;;;38.50;33.28;;;;;;;10.44;76.06;100322.59;5061106;28;20103;-63
2022/04/23 05:55:26;;;;;;;36.08;32.33;;;;;;;10.51;75.72;100311.50;5068231;28;20033;-63
2022/04/23 05:57:52;;;;;;;37.50;33.47;;;;;;;10.54;75.68;100319.28;5041177;28;20029;-63
2022/04/23 06:00:18;;;;;;;39.25;33.25;;;;;;;10.59;75.18;100310.00;5031616;28;20496;-63
2022/04/23 06:02:43;;;;;;;37.35;33.38;;;;;;;10.63;75.39;100316.78;5032109;28;20116;-63
2022/04/23 06:05:09;;;;;;;38.08;32.55;;;;;;;10.66;75.01;100305.94;5030836;28;20116;-63
2022/04/23 06:07:34;;;;;;;36.97;33.13;;;;;;;10.79;75.08;100319.19;5048072;28;20029;-63
2022/04/23 06:10:00;;;;;;;36.47;32.67;;;;;;;10.86;74.31;100308.97;5032360;28;20036;-63
2022/04/23 06:12:26;;;;;;;37.75;32.67;;;;;;;10.93;73.67;100315.53;5032627;28;20061;-63
2022/04/23 06:14:52;;;;;;;35.88;31.98;;;;;;;11.00;74.08;100310.59;5029189;28;20048;-63
2022/04/23 06:17:24;;;;;;;36.75;32.83;;;;;;;11.13;73.68;100314.06;5031818;28;20064;-63
2022/04/23 06:19:50;;;;;;;34.45;30.73;;;;;;;11.20;73.26;100301.16;5032051;28;20030;-63
2022/04/23 06:22:15;;;;;;;35.45;31.73;;;;;;;11.31;73.12;100314.50;5032801;28;20090;-63
2022/04/23 06:24:41;;;;;;;34.67;31.00;;;;;;;11.39;72.82;100313.94;5031077;28;20435;-63
2022/04/23 06:27:06;;;;;;;34.55;31.00;;;;;;;11.43;72.08;100304.75;5032676;28;20490;-63
2022/04/23 06:29:32;;;;;;;36.92;32.75;;;;;;;11.54;71.53;100307.47;5032001;28;20566;-63
2022/04/23 06:31:58;;;;;;;34.45;30.73;;;;;;;11.64;71.47;100312.94;5031429;28;20152;-63
2022/04/23 06:34:23;;;;;;;36.72;31.25;;;;;;;11.76;71.31;100315.50;5031813;28;20116;-63
2022/04/23 06:36:51;;;;;;;35.38;31.77;;;;;;;11.88;70.89;100315.56;5047671;28;20102;-63
2022/04/23 06:39:17;;;;;;;33.78;30.23;;;;;;;12.00;70.32;100312.81;5030921;28;20030;-63
2022/04/23 06:41:42;;;;;;;33.42;29.90;;;;;;;12.12;69.74;100318.13;5048024;28;20064;-63
2022/04/23 06:44:08;;;;;;;34.13;30.50;;;;;;;12.21;68.93;100310.28;5031909;28;20100;-63
2022/04/23 06:46:34;;;;;;;33.58;30.08;;;;;;;12.28;68.60;100307.97;5063568;28;20493;-63
2022/04/23 06:49:05;;;;;;;33.67;30.13;;;;;;;12.37;68.33;100311.72;5030362;28;20030;-63
2022/04/23 06:51:31;;;;;;;34.00;30.48;;;;;;;12.43;67.66;100312.09;5045546;28;20401;-63
2022/04/23 06:53:56;;;;;;;32.78;29.45;;;;;;;12.49;67.28;100302.75;5047252;28;20025;-63
2022/04/23 06:56:22;;;;;;;33.08;29.58;;;;;;;12.48;67.64;100301.91;5063571;28;20049;-63
2022/04/23 06:58:50;;;;;;;33.88;29.92;;;;;;;12.61;67.01;100300.91;5066792;28;20032;-63
2022/04/23 07:01:17;;;;;;;31.80;28.50;;;;;;;12.72;66.94;100304.41;5054047;28;20026;-63
2022/04/23 07:03:42;;;;;;;32.25;28.92;;;;;;;12.89;66.67;100294.19;5030716;28;20416;-63
2022/04/23 07:06:08;;;;;;;33.60;30.23;;;;;;;12.97;65.71;100305.09;5031796;28;20528;-63
2022/04/23 07:08:34;;;;;;;32.33;29.02;;;;;;;13.08;65.20;100299.72;5031233;28;20029;-63
2022/04/23 07:11:01;;;;;;;32.63;29.33;;;;;;;13.11;64.83;100295.94;5047058;28;20032;-63
2022/04/23 07:13:28;;;;;;;32.78;29.48;;;;;;;13.24;64.77;100295.78;5046265;28;20237;-63
2022/04/23 07:15:56;;;;;;;36.33;28.70;;;;;;;13.27;64.54;100298.25;5030019;28;20040;-63
2022/04/23 07:18:22;;;;;;;33.25;27.65;;;;;;;13.33;63.48;100295.91;5030865;28;20033;-63
2022/04/23 07:20:47;;;;;;;31.33;28.10;;;;;;;13.48;64.48;100287.56;5046372;28;20496;-63
2022/04/23 07:25:57;;;;;;;30.70;27.40;;;;;;;13.61;63.39;100291.72;5044907;28;20459;-63
2022/04/23 07:28:22;;;;;;;31.50;28.35;;;;;;;13.66;62.37;100302.03;5046127;28;20037;-63
2022/04/23 07:30:48;;;;;;;29.92;26.83;;;;;;;13.77;62.51;100291.28;5029941;28;20104;-63
2022/04/23 07:37:28;;;;;;;31.58;28.27;;;;;;;13.84;62.18;100280.91;5029978;28;20075;-64
2022/04/23 07:38:43;;;;;;;29.80;26.73;;;;;;;14.11;60.54;100291.06;5031101;28;20404;-63
2022/04/23 07:41:09;;;;;;;30.70;27.40;;;;;;;14.08;60.00;100292.16;5062818;28;20120;-63
2022/04/23 07:43:35;;;;;;;29.90;26.70;;;;;;;14.19;59.85;100285.03;5046035;28;20033;-63
2022/04/23 07:46:03;;;;;;;29.83;26.63;;;;;;;14.35;60.52;100276.50;5031039;28;20044;-63
2022/04/23 07:48:28;;;;;;;30.27;24.98;;;;;;;14.50;59.67;100284.03;5030780;28;20021;-63
2022/04/23 07:50:54;;;;;;;30.27;25.30;;;;;;;14.55;59.61;100283.66;5029446;28;20385;-63
2022/04/23 07:53:24;;;;;;;29.08;25.88;;;;;;;14.67;58.34;100277.19;5030924;28;20083;-63
2022/04/23 07:55:49;;;;;;;;;;;;;;;14.80;59.07;100285.00;5031242;28;20787;-64
2022/04/23 07:58:14;;;;;;;30.58;25.92;;;;;;;14.76;57.07;100279.06;5046067;28;19917;-63
2022/04/23 08:00:43;;;;;;;28.92;25.80;;;;;;;14.69;57.20;100277.91;5045844;28;20037;-63
2022/04/23 08:03:09;;;;;;;28.17;25.23;;;;;;;14.89;57.27;100277.97;5045628;28;20029;-63
2022/04/23 08:05:34;;;;;;;27.75;24.23;;;;;;;14.93;57.12;100279.38;5028648;28;20034;-63
2022/04/23 08:08:00;;;;;;;28.08;24.13;;;;;;;15.02;56.45;100269.66;5030886;28;20029;-64
2022/04/23 08:10:26;;;;;;;28.40;24.60;;;;;;;15.02;55.76;100270.50;5030736;28;20028;-63
2022/04/23 08:12:51;;;;;;;27.00;24.38;;;;;;;15.03;55.21;100256.16;5028762;28;20501;-63
2022/04/23 08:15:19;;;;;;;25.95;23.35;;;;;;;15.04;55.25;100260.50;5045874;28;20048;-63
2022/04/23 08:17:45;;;;;;;27.83;24.08;;;;;;;15.13;54.85;100259.66;5030473;28;20106;-63
2022/04/23 08:20:11;;;;;;;26.38;23.67;;;;;;;15.23;54.82;100262.31;5030214;28;20485;-63
2022/04/23 08:22:39;;;;;;;27.05;23.98;;;;;;;15.30;54.81;100263.47;5030631;28;20025;-64
2022/04/23 08:25:05;;;;;;;27.42;24.63;;;;;;;15.47;54.39;100256.56;5030484;28;20028;-63
2022/04/23 08:27:46;;;;;;;27.73;24.77;;;;;;;15.51;54.40;100249.91;5029047;28;20091;-63
2022/04/23 08:32:56;;;;;;;26.95;24.05;;;;;;;15.64;54.17;100261.16;5044079;28;20108;-63
2022/04/23 08:35:22;;;;;;;26.88;24.08;;;;;;;15.66;53.21;100253.81;5028624;28;20037;-63
2022/04/23 08:37:50;;;;;;;24.90;22.38;;;;;;;15.82;53.50;100253.25;5029373;28;20033;-63
2022/04/23 08:40:16;;;;;;;25.58;22.52;;;;;;;16.04;53.67;100260.09;5045277;28;20034;-63
2022/04/23 08:42:41;;;;;;;29.70;24.90;;;;;;;16.11;52.21;100261.19;5029261;28;20491;-64
2022/04/23 08:45:10;;;;;;;26.63;23.65;;;;;;;16.02;52.38;100250.50;5030001;28;20029;-64
2022/04/23 08:47:37;;;;;;;26.42;23.83;;;;;;;16.07;52.22;100251.75;5030631;28;20029;-64
2022/04/23 08:50:05;;;;;;;28.05;25.08;;;;;;;16.23;52.01;100261.84;5030138;28;20044;-64
2022/04/23 08:52:33;;;;;;;27.88;24.48;;;;;;;16.41;51.49;100258.38;5045700;28;20040;-64
2022/04/23 08:55:00;;;;;;;27.38;24.48;;;;;;;16.51;50.81;100253.84;5028502;28;20041;-64
2022/04/23 08:57:26;;;;;;;27.65;24.70;;;;;;;16.56;50.78;100255.06;5030606;28;20496;-64
2022/04/23 08:59:56;;;;;;;27.23;24.48;;;;;;;16.67;50.58;100259.38;5030254;28;20025;-64
2022/04/23 09:02:22;;;;;;;29.88;23.75;;;;;;;16.76;51.36;100263.03;5030371;28;20036;-64
2022/04/23 09:04:48;;;;;;;30.08;25.42;;;;;;;16.85;50.34;100278.22;5028007;28;20075;-64
2022/04/23 09:07:22;;;;;;;29.20;25.73;;;;;;;16.86;50.10;100265.66;5028873;28;20041;-64
2022/04/23 09:09:49;;;;;;;28.17;25.38;;;;;;;16.70;49.98;100269.81;5028511;28;20036;-64
2022/04/23 09:12:15;;;;;;;29.58;26.67;;;;;;;16.72;50.37;100269.69;5028949;28;20029;-64
2022/04/23 09:14:40;;;;;;;27.70;24.88;;;;;;;16.78;50.36;100278.00;5046119;28;20064;-64
2022/04/23 09:25:31;;;;;;;29.58;26.42;;;;;;;16.76;50.35;100282.66;5033858;28;20035;-64
2022/04/23 09:28:30;;;;;;;30.77;27.67;;;;;;;16.76;50.95;100273.78;5032684;28;20049;-64
2022/04/23 09:30:56;;;;;;;31.13;27.60;;;;;;;16.81;50.22;100266.13;5033819;28;20511;-64
2022/04/23 09:33:41;;;;;;;30.08;26.90;;;;;;;16.77;50.15;100270.94;5031246;28;20090;-64
2022/04/23 09:36:07;;;;;;;35.25;31.55;;;;;;;16.91;49.84;100274.97;5032732;28;20048;-64
2022/04/23 09:38:35;;;;;;;33.58;29.80;;;;;;;16.87;49.78;100280.78;5034867;28;20485;-64
2022/04/23 09:41:19;;;;;;;30.55;27.35;;;;;;;16.79;49.96;100278.84;5047559;28;20049;-64
2022/04/23 09:43:48;;;;;;;31.55;28.42;;;;;;;16.67;50.34;100266.59;5032948;28;20025;-64
2022/04/23 09:46:14;;;;;;;33.05;29.80;;;;;;;16.72;50.81;100267.00;5033058;28;20032;-64
2022/04/23 09:48:43;;;;;;;34.38;30.77;;;;;;;16.87;51.15;100262.81;5032956;28;20029;-64
2022/04/23 09:51:26;;;;;;;32.92;29.52;;;;;;;17.08;50.12;100267.88;5049903;28;20021;-64
2022/04/23 09:53:54;;;;;;;33.00;29.02;;;;;;;17.21;49.09;100259.47;5047839;28;20147;-64
2022/04/23 09:56:26;;;;;;;32.67;29.15;;;;;;;17.45;48.77;100258.81;5032738;28;20044;-64
2022/04/23 09:58:52;;;;;;;31.35;28.17;;;;;;;17.66;48.06;100258.47;5032909;28;20022;-64
2022/04/23 10:01:23;;;;;;;32.85;29.58;;;;;;;17.99;47.45;100272.16;5034094;28;20029;-64
2022/04/23 10:03:51;;;;;;;29.63;26.70;;;;;;;18.22;47.19;100259.84;5047541;28;20091;-64
2022/04/23 10:06:18;;;;;;;29.35;26.35;;;;;;;18.35;46.44;100256.72;5032409;28;20033;-64
2022/04/23 10:08:58;;;;;;;31.83;27.17;;;;;;;18.61;46.02;100256.63;5032046;28;20025;-64
2022/04/23 10:11:30;;;;;;;30.73;27.48;;;;;;;18.67;45.97;100257.84;5033266;28;20418;-64
2022/04/23 10:14:01;;;;;;;28.42;25.52;;;;;;;18.75;44.99;100252.50;5032086;28;20420;-64
2022/04/23 10:16:31;;;;;;;28.40;25.70;;;;;;;18.72;45.17;100245.56;5031555;28;20026;-64
2022/04/23 10:18:57;;;;;;;28.15;25.15;;;;;;;18.86;45.13;100236.03;5032020;28;20061;-64
2022/04/23 10:21:59;;;;;;;28.33;25.42;;;;;;;19.17;45.67;100227.31;5049500;28;20436;-64
2022/04/23 10:24:33;;;;;;;27.15;24.45;;;;;;;19.35;43.85;100236.06;5010974;28;20054;-64
2022/04/23 10:27:07;;;;;;;27.05;24.40;;;;;;;19.52;43.47;100235.03;5046489;28;20385;-64
2022/04/23 10:29:34;;;;;;;29.15;26.15;;;;;;;19.65;43.08;100233.75;5031663;28;20033;-64
2022/04/23 10:32:19;;;;;;;27.48;24.65;;;;;;;19.93;43.42;100226.06;5033434;28;20030;-64
2022/04/23 10:34:45;;;;;;;28.25;25.20;;;;;;;19.97;42.58;100230.09;5037023;28;20373;-64
2022/04/23 10:37:29;;;;;;;28.02;25.02;;;;;;;19.90;42.73;100243.47;5052008;28;20038;-64
2022/04/23 10:39:55;;;;;;;27.95;25.30;;;;;;;19.76;43.11;100241.47;5034447;28;20041;-64
2022/04/23 10:42:22;;;;;;;27.50;24.65;;;;;;;19.74;42.65;100236.25;5031691;28;20029;-64
2022/04/23 10:44:48;;;;;;;27.60;24.92;;;;;;;19.74;42.37;100227.31;5031562;28;20381;-64
2022/04/23 10:47:32;;;;;;;28.83;25.17;;;;;;;19.78;43.27;100236.75;5031085;28;20401;-64
2022/04/23 10:50:29;;;;;;;34.10;26.50;;;;;;;19.82;43.16;100226.44;5030464;28;20036;-64
2022/04/23 10:53:04;;;;;;;31.75;27.73;;;;;;;19.87;42.54;100230.31;5032421;28;20021;-64
2022/04/23 10:55:30;;;;;;;28.40;25.38;;;;;;;20.04;42.18;100231.13;5031241;28;20053;-65
2022/04/23 10:58:19;;;;;;;29.83;24.63;;;;;;;20.22;41.76;100227.34;5031792;28;20079;-65
2022/04/23 11:00:45;;;;;;;27.02;24.45;;;;;;;20.09;41.66;100220.63;5032034;28;20032;-65
2022/04/23 11:03:11;;;;;;;30.23;25.80;;;;;;;20.25;40.88;100232.41;5030795;28;20033;-64
2022/04/23 11:13:53;;;;;;;28.08;25.25;;;;;;;20.48;41.00;100219.78;5028750;28;20087;-64
2022/04/23 11:16:28;;;;;;;26.67;23.92;;;;;;;20.51;41.00;100229.41;5029606;28;20338;-64
2022/04/23 11:18:58;;;;;;;27.58;24.35;;;;;;;20.71;40.21;100213.63;5029675;28;20025;-64
2022/04/23 11:21:32;;;;;;;26.70;24.05;;;;;;;20.74;40.19;100214.13;5024235;28;20033;-64
2022/04/23 11:23:59;;;;;;;28.45;25.65;;;;;;;20.53;39.92;100216.56;5030609;28;20180;-64
2022/04/23 11:26:44;;;;;;;25.80;23.38;;;;;;;20.37;41.07;100220.19;5034888;28;20045;-64
2022/04/23 11:29:14;;;;;;;28.92;26.10;;;;;;;20.25;40.48;100222.44;5030314;28;20100;-64
2022/04/23 11:31:40;;;;;;;;;;;;;;;20.86;40.18;100223.50;5030878;28;20403;-64
2022/04/23 11:34:05;;;;;;;27.15;24.42;;;;;;;20.98;38.98;100217.69;5029575;28;19923;-64
2022/04/23 11:36:35;;;;;;;28.67;25.73;;;;;;;20.91;39.18;100214.00;5050149;28;20404;-64
2022/04/23 11:39:07;;;;;;;25.92;22.95;;;;;;;21.10;39.26;100211.66;5032945;28;20013;-64
2022/04/23 11:41:49;;;;;;;26.15;23.48;;;;;;;20.94;39.30;100197.41;5035054;28;20025;-64